Time;durP1;ratioP1;P1;durP2;ratioP2;P2;SDS_P1;SDS_P2;PMS_P1;PMS_P2;Temp;Humidity;BMP_temperature;BMP_pressure;BME280_temperature;BME280_humidity;BME280_pressure;Samples;Min_cycle;Max_cycle;Signal;HPM_P1;HPM_P2
2024/03/16 00:00:13;;;;;;;1.17;0.80;;;15.40;68.70;;;;;;5008142;28;20217;-62
2024/03/16 00:02:39;;;;;;;1.20;0.90;;;15.60;67.90;;;;;;5011760;28;20214;-59
2024/03/16 00:05:05;;;;;;;2.93;1.43;;;15.80;67.10;;;;;;5005875;28;20762;-62
2024/03/16 00:07:30;;;;;;;4.07;1.10;;;15.80;66.90;;;;;;5010163;28;20202;-63
2024/03/16 00:09:56;;;;;;;1.07;0.87;;;16.00;66.50;;;;;;5004060;28;20205;-65
2024/03/16 00:12:22;;;;;;;1.90;1.10;;;16.10;65.90;;;;;;5009320;28;20593;-60
2024/03/16 00:14:50;;;;;;;4.20;1.00;;;16.10;65.50;;;;;;5009618;28;20186;-61
2024/03/16 00:17:20;;;;;;;1.20;0.87;;;16.20;64.40;;;;;;5007481;28;20205;-63
2024/03/16 00:19:46;;;;;;;1.03;0.93;;;16.10;65.50;;;;;;5007300;28;20430;-63
2024/03/16 00:22:12;;;;;;;2.07;1.07;;;15.90;64.80;;;;;;5011819;28;20561;-59
2024/03/16 00:24:37;;;;;;;1.27;1.17;;;15.40;65.50;;;;;;5008444;28;20179;-60
2024/03/16 00:27:03;;;;;;;1.80;0.90;;;15.20;66.20;;;;;;5010563;28;20194;-62
2024/03/16 00:29:28;;;;;;;2.27;0.90;;;15.20;66.60;;;;;;5006505;28;20178;-63
2024/03/16 00:31:54;;;;;;;4.90;0.83;;;15.10;66.70;;;;;;5009232;28;20264;-62
2024/03/16 00:34:20;;;;;;;0.80;0.80;;;15.20;66.90;;;;;;5008634;28;20244;-61
2024/03/16 00:36:45;;;;;;;1.53;0.73;;;15.00;66.80;;;;;;5010943;28;20569;-61
2024/03/16 00:39:23;;;;;;;2.10;1.10;;;15.00;67.00;;;;;;5005774;28;20625;-62
2024/03/16 00:41:49;;;;;;;1.17;0.70;;;14.90;67.70;;;;;;5009828;28;22102;-63
2024/03/16 00:44:15;;;;;;;0.67;0.67;;;15.00;67.40;;;;;;5003436;28;20788;-62
2024/03/16 00:46:40;;;;;;;3.47;0.87;;;15.10;66.60;;;;;;5007896;28;20465;-63
2024/03/16 00:49:06;;;;;;;1.07;0.80;;;15.10;66.40;;;;;;5009243;28;20182;-60
2024/03/16 00:51:33;;;;;;;1.13;0.73;;;15.00;66.50;;;;;;5007469;28;20182;-61
2024/03/16 00:53:58;;;;;;;2.07;0.70;;;15.10;66.40;;;;;;5007288;28;20186;-62
2024/03/16 00:56:24;;;;;;;1.63;0.60;;;15.30;65.80;;;;;;5006252;28;20448;-62
2024/03/16 00:58:50;;;;;;;0.70;0.67;;;15.30;64.80;;;;;;5007338;28;20182;-62
2024/03/16 01:01:15;;;;;;;1.60;0.80;;;15.40;64.50;;;;;;5009586;28;20263;-62
2024/03/16 01:03:41;;;;;;;0.70;0.70;;;15.40;64.00;;;;;;5005836;28;20317;-63
2024/03/16 01:06:07;;;;;;;0.83;0.70;;;15.40;64.00;;;;;;5008936;28;20209;-62
2024/03/16 01:08:32;;;;;;;1.60;0.60;;;15.40;64.40;;;;;;5008460;28;20253;-59
2024/03/16 01:10:58;;;;;;;0.80;0.60;;;15.50;63.80;;;;;;5011159;28;20630;-62
2024/03/16 01:13:23;;;;;;;0.80;0.80;;;15.50;63.40;;;;;;5006745;28;20708;-62
2024/03/16 01:15:50;;;;;;;0.50;0.40;;;15.30;63.80;;;;;;5010436;28;20231;-62
2024/03/16 01:18:15;;;;;;;0.60;0.60;;;15.40;63.70;;;;;;5004111;28;20709;-62
2024/03/16 01:20:44;;;;;;;0.80;0.70;;;15.40;63.00;;;;;;5008900;28;20424;-63
2024/03/16 01:23:12;;;;;;;0.60;0.57;;;15.60;62.90;;;;;;5005640;28;20552;-61
2024/03/16 01:25:39;;;;;;;0.70;0.70;;;15.30;62.70;;;;;;5007768;28;20936;-60
2024/03/16 01:28:04;;;;;;;0.50;0.47;;;15.20;62.60;;;;;;5007179;28;20441;-62
2024/03/16 01:30:30;;;;;;;0.80;0.70;;;15.30;62.90;;;;;;5006406;28;21003;-62
2024/03/16 01:32:56;;;;;;;0.80;0.63;;;15.40;63.20;;;;;;5005593;28;20190;-63
2024/03/16 01:35:22;;;;;;;0.60;0.50;;;15.30;61.90;;;;;;5010351;28;20183;-62
2024/03/16 01:37:47;;;;;;;0.70;0.70;;;15.30;62.10;;;;;;5005842;28;20288;-63
2024/03/16 01:40:13;;;;;;;2.00;0.60;;;15.30;61.70;;;;;;5008620;28;20429;-64
2024/03/16 01:42:39;;;;;;;0.60;0.60;;;15.30;61.90;;;;;;5004118;28;20567;-61
2024/03/16 01:45:11;;;;;;;1.03;0.57;;;15.30;61.70;;;;;;5007508;28;20232;-62
2024/03/16 01:47:38;;;;;;;0.53;0.50;;;15.30;61.60;;;;;;5009233;28;20271;-62
2024/03/16 01:50:04;;;;;;;0.77;0.63;;;15.30;61.60;;;;;;5009275;28;20425;-65
2024/03/16 01:52:30;;;;;;;3.93;0.77;;;15.30;61.70;;;;;;5006572;28;20494;-58
2024/03/16 01:54:55;;;;;;;0.70;0.50;;;15.30;61.70;;;;;;5008741;28;20420;-59
2024/03/16 01:57:21;;;;;;;0.93;0.60;;;15.40;61.80;;;;;;5002996;28;20436;-59
2024/03/16 01:59:48;;;;;;;0.67;0.67;;;15.40;61.70;;;;;;5007222;28;20557;-58
2024/03/16 02:02:31;;;;;;;1.00;0.60;;;15.30;61.90;;;;;;5009573;28;20220;-59
2024/03/16 02:04:56;;;;;;;0.50;0.50;;;15.20;62.10;;;;;;5004853;28;20425;-59
2024/03/16 02:07:22;;;;;;;1.30;0.70;;;15.20;62.30;;;;;;5008187;28;20475;-59
2024/03/16 02:09:47;;;;;;;1.00;0.77;;;14.90;62.70;;;;;;5002777;28;20178;-60
2024/03/16 02:12:13;;;;;;;0.60;0.60;;;14.90;63.50;;;;;;5006730;28;20582;-60
2024/03/16 02:14:39;;;;;;;1.10;0.60;;;14.60;65.10;;;;;;5008249;28;20189;-60
2024/03/16 02:17:04;;;;;;;0.80;0.60;;;14.60;64.40;;;;;;5005807;28;20678;-57
2024/03/16 02:19:33;;;;;;;0.60;0.57;;;14.60;65.20;;;;;;5006400;28;20178;-59
2024/03/16 02:21:59;;;;;;;0.90;0.70;;;14.60;64.90;;;;;;5005140;28;20217;-60
2024/03/16 02:24:24;;;;;;;0.73;0.70;;;14.50;65.40;;;;;;5007081;28;20417;-60
2024/03/16 02:26:51;;;;;;;0.80;0.70;;;14.70;65.00;;;;;;5007602;28;20298;-58
2024/03/16 02:29:18;;;;;;;0.90;0.60;;;14.60;64.60;;;;;;5005125;28;20229;-59
2024/03/16 02:31:43;;;;;;;2.10;0.80;;;14.60;64.70;;;;;;5005514;28;20417;-60
2024/03/16 02:34:09;;;;;;;0.50;0.50;;;14.70;64.70;;;;;;5006050;28;20425;-60
2024/03/16 02:36:35;;;;;;;0.50;0.50;;;14.80;64.70;;;;;;5008693;28;20288;-59
2024/03/16 02:39:00;;;;;;;0.70;0.50;;;14.70;64.30;;;;;;5003649;28;20690;-59
2024/03/16 02:41:26;;;;;;;3.53;0.70;;;14.50;65.00;;;;;;5007801;28;20232;-58
2024/03/16 02:43:52;;;;;;;1.07;0.60;;;14.30;65.60;;;;;;5001720;28;20175;-60
2024/03/16 02:46:18;;;;;;;0.80;0.73;;;14.40;66.10;;;;;;5001262;28;20693;-59
2024/03/16 02:48:45;;;;;;;1.97;0.63;;;14.30;66.90;;;;;;5006827;28;20444;-59
2024/03/16 02:51:11;;;;;;;0.60;0.50;;;14.10;66.70;;;;;;5005240;28;20193;-59
2024/03/16 02:53:37;;;;;;;0.90;0.60;;;14.20;67.10;;;;;;5005102;28;20426;-58
2024/03/16 02:56:04;;;;;;;0.90;0.53;;;13.90;67.20;;;;;;5004089;28;20486;-60
2024/03/16 02:58:29;;;;;;;1.90;0.60;;;13.90;68.20;;;;;;5002881;28;20433;-57
2024/03/16 03:00:55;;;;;;;1.67;0.77;;;13.90;67.70;;;;;;5005260;28;20405;-59
2024/03/16 03:03:21;;;;;;;0.63;0.60;;;13.90;68.00;;;;;;5005289;28;20193;-60
2024/03/16 03:05:46;;;;;;;1.53;0.90;;;14.00;68.00;;;;;;5006347;28;20178;-59
2024/03/16 03:08:12;;;;;;;1.80;0.50;;;14.00;67.20;;;;;;5005938;28;20582;-60
2024/03/16 03:10:41;;;;;;;0.93;0.63;;;13.90;67.70;;;;;;5008738;28;20188;-59
2024/03/16 03:13:06;;;;;;;2.10;0.90;;;13.90;67.90;;;;;;5004697;28;20190;-58
2024/03/16 03:15:33;;;;;;;1.00;0.80;;;14.00;67.30;;;;;;5008158;28;20413;-60
2024/03/16 03:17:59;;;;;;;3.13;0.80;;;14.00;67.40;;;;;;5001750;28;20194;-60
2024/03/16 03:20:24;;;;;;;1.20;0.50;;;13.90;67.50;;;;;;5006587;28;20760;-58
2024/03/16 03:22:50;;;;;;;2.00;0.63;;;13.90;67.80;;;;;;5008225;28;20225;-60
2024/03/16 03:25:16;;;;;;;1.20;0.80;;;14.00;67.60;;;;;;5009219;28;20190;-59
2024/03/16 03:27:42;;;;;;;1.20;0.93;;;14.10;67.40;;;;;;5010064;28;20228;-59
2024/03/16 03:30:08;;;;;;;1.53;0.73;;;14.10;67.40;;;;;;5007993;28;20433;-60
2024/03/16 03:32:33;;;;;;;1.20;0.67;;;14.10;67.30;;;;;;5008291;28;20733;-60
2024/03/16 03:34:59;;;;;;;1.33;0.50;;;14.10;67.20;;;;;;5012535;28;20490;-60
2024/03/16 03:37:24;;;;;;;2.10;0.63;;;14.10;67.50;;;;;;5008938;28;20261;-60
2024/03/16 03:39:52;;;;;;;0.63;0.53;;;14.10;67.40;;;;;;5010228;28;20546;-60
2024/03/16 03:42:19;;;;;;;2.57;0.57;;;14.00;67.90;;;;;;5004957;28;20298;-59
2024/03/16 03:45:00;;;;;;;0.70;0.70;;;14.00;67.90;;;;;;5008722;28;20531;-60
2024/03/16 03:47:49;;;;;;;1.43;1.33;;;14.00;68.20;;;;;;5008972;28;20571;-59
2024/03/16 03:50:14;;;;;;;2.83;0.70;;;14.10;68.30;;;;;;5009253;28;20413;-59
2024/03/16 03:52:39;;;;;;;3.30;0.80;;;14.20;67.60;;;;;;5009346;28;20884;-60
2024/03/16 03:55:05;;;;;;;0.73;0.63;;;14.20;67.90;;;;;;5008745;28;20178;-59
2024/03/16 03:57:31;;;;;;;2.00;0.70;;;14.20;67.90;;;;;;5006344;28;20236;-58
2024/03/16 03:59:56;;;;;;;1.63;0.60;;;14.20;67.80;;;;;;5007764;28;20763;-60
2024/03/16 04:02:22;;;;;;;1.03;0.70;;;14.10;68.10;;;;;;5011768;28;20210;-60
2024/03/16 04:04:48;;;;;;;1.23;0.87;;;14.10;68.80;;;;;;5006735;28;20197;-60
2024/03/16 04:07:13;;;;;;;0.90;0.50;;;14.20;68.80;;;;;;5009458;28;20228;-59
2024/03/16 04:09:42;;;;;;;3.43;0.90;;;14.60;68.30;;;;;;5005232;28;20229;-60
2024/03/16 04:12:09;;;;;;;0.70;0.60;;;14.80;67.50;;;;;;5008400;28;20182;-60
2024/03/16 04:14:34;;;;;;;0.90;0.60;;;14.90;67.20;;;;;;5009825;28;20429;-59
2024/03/16 04:17:00;;;;;;;1.47;0.70;;;15.00;67.50;;;;;;5007582;28;20454;-60
2024/03/16 04:19:25;;;;;;;3.23;0.70;;;15.20;67.10;;;;;;5007780;28;20202;-60
2024/03/16 04:21:51;;;;;;;1.77;0.70;;;15.20;67.10;;;;;;5010762;28;20249;-59
2024/03/16 04:24:16;;;;;;;2.03;0.50;;;15.20;67.70;;;;;;5009588;28;20185;-59
2024/03/16 04:26:42;;;;;;;1.07;0.80;;;15.20;67.70;;;;;;5008634;28;20198;-60
2024/03/16 04:29:08;;;;;;;0.93;0.83;;;15.10;67.80;;;;;;5008144;28;20198;-59
2024/03/16 04:31:33;;;;;;;1.17;0.70;;;15.30;67.40;;;;;;5005983;28;20213;-58
2024/03/16 04:33:59;;;;;;;1.80;0.97;;;15.30;67.20;;;;;;5008238;28;20189;-60
2024/03/16 04:36:24;;;;;;;0.60;0.60;;;15.40;66.70;;;;;;5010068;28;20197;-60
2024/03/16 04:38:50;;;;;;;1.10;1.00;;;15.50;66.40;;;;;;5005658;28;20224;-61
2024/03/16 04:41:17;;;;;;;1.53;0.90;;;15.60;66.30;;;;;;5009387;28;20248;-57
2024/03/16 04:43:46;;;;;;;1.13;0.70;;;15.60;66.10;;;;;;5004914;28;20182;-60
2024/03/16 04:46:13;;;;;;;0.77;0.70;;;15.30;66.70;;;;;;5007825;28;20488;-60
2024/03/16 04:48:39;;;;;;;1.60;0.70;;;15.30;67.50;;;;;;5009376;28;20425;-60
2024/03/16 04:51:04;;;;;;;3.63;0.80;;;15.40;67.20;;;;;;5007779;28;21031;-59
2024/03/16 04:53:30;;;;;;;3.53;1.00;;;15.60;67.00;;;;;;5008126;28;20181;-59
2024/03/16 04:55:55;;;;;;;1.13;1.03;;;15.60;66.70;;;;;;5006822;28;20194;-60
2024/03/16 04:58:22;;;;;;;2.93;0.80;;;15.60;66.80;;;;;;5006048;28;20673;-60
2024/03/16 05:00:48;;;;;;;1.30;1.00;;;15.60;66.80;;;;;;5009477;28;20197;-59
2024/03/16 05:03:14;;;;;;;1.50;0.77;;;15.60;66.80;;;;;;5008483;28;20468;-60
2024/03/16 05:05:39;;;;;;;2.50;1.10;;;15.60;66.70;;;;;;5007395;28;20234;-59
2024/03/16 05:08:07;;;;;;;3.47;0.90;;;15.60;66.90;;;;;;5006471;28;20230;-59
2024/03/16 05:10:32;;;;;;;2.03;0.90;;;15.50;66.90;;;;;;5005210;28;20186;-60
2024/03/16 05:12:58;;;;;;;2.40;1.03;;;15.60;66.60;;;;;;5006705;28;20429;-59
2024/03/16 05:15:24;;;;;;;2.33;1.00;;;15.70;66.40;;;;;;5010274;28;20676;-59
2024/03/16 05:17:50;;;;;;;0.90;0.80;;;15.80;66.20;;;;;;5004039;28;20218;-58
2024/03/16 05:20:15;;;;;;;1.43;0.83;;;15.80;66.20;;;;;;5008017;28;20417;-59
2024/03/16 05:22:41;;;;;;;1.73;0.90;;;15.80;66.10;;;;;;5010673;28;20209;-59
2024/03/16 05:25:06;;;;;;;1.00;0.70;;;15.90;66.40;;;;;;5007138;28;20204;-59
2024/03/16 05:27:33;;;;;;;2.47;0.83;;;15.90;66.50;;;;;;5007965;28;20202;-59
2024/03/16 05:29:58;;;;;;;1.43;0.83;;;15.90;66.30;;;;;;5005704;28;20248;-59
2024/03/16 05:32:24;;;;;;;1.77;0.90;;;15.90;66.20;;;;;;5007261;28;20417;-59
2024/03/16 05:34:49;;;;;;;0.93;0.83;;;15.90;66.10;;;;;;5009425;28;21665;-59
2024/03/16 05:37:15;;;;;;;1.07;0.70;;;15.80;65.70;;;;;;5008521;28;20210;-59
2024/03/16 05:39:41;;;;;;;2.50;0.63;;;15.70;65.60;;;;;;5006845;28;20253;-59
2024/03/16 05:42:06;;;;;;;2.87;0.90;;;15.80;65.50;;;;;;5008312;28;20214;-59
2024/03/16 05:44:32;;;;;;;2.13;0.60;;;15.80;65.10;;;;;;5005031;28;20213;-60
2024/03/16 05:46:57;;;;;;;1.10;0.80;;;15.80;65.70;;;;;;5006849;28;20225;-59
2024/03/16 05:49:23;;;;;;;1.83;0.70;;;15.90;64.60;;;;;;5009168;28;20624;-59
2024/03/16 05:51:48;;;;;;;2.23;0.70;;;15.90;64.60;;;;;;5006096;28;20186;-59
2024/03/16 05:54:14;;;;;;;4.23;0.90;;;15.80;64.60;;;;;;5008087;28;20174;-60
2024/03/16 05:56:39;;;;;;;1.00;0.60;;;15.80;65.00;;;;;;5004612;28;20210;-60
2024/03/16 05:59:11;;;;;;;2.20;2.00;;;15.80;65.00;;;;;;5005815;28;20178;-60
2024/03/16 06:01:37;;;;;;;1.97;1.60;;;15.90;65.30;;;;;;5008837;28;20266;-60
2024/03/16 06:04:03;;;;;;;1.67;1.37;;;15.90;65.40;;;;;;5006278;28;20510;-58
2024/03/16 06:06:28;;;;;;;3.57;1.90;;;15.90;65.40;;;;;;5006995;28;20222;-59
2024/03/16 06:08:54;;;;;;;1.70;1.57;;;15.90;65.60;;;;;;5004665;28;20189;-60
2024/03/16 06:11:19;;;;;;;1.70;1.60;;;15.90;65.60;;;;;;5005985;28;20649;-60
2024/03/16 06:13:45;;;;;;;2.27;1.47;;;15.90;65.70;;;;;;5007419;28;20265;-60
2024/03/16 06:16:11;;;;;;;1.67;0.97;;;15.90;66.00;;;;;;5007659;28;20182;-60
2024/03/16 06:18:39;;;;;;;1.30;1.20;;;15.90;66.20;;;;;;5005215;28;20899;-60
2024/03/16 06:21:08;;;;;;;1.57;0.90;;;16.00;66.30;;;;;;5006236;28;20182;-59
2024/03/16 06:23:33;;;;;;;0.90;0.90;;;16.00;66.70;;;;;;5006693;28;20425;-59
2024/03/16 06:26:03;;;;;;;1.23;1.00;;;16.00;66.20;;;;;;5005621;28;20424;-59
2024/03/16 06:28:29;;;;;;;2.03;0.93;;;16.00;66.40;;;;;;5008147;28;20268;-58
2024/03/16 06:31:07;;;;;;;0.90;0.90;;;16.00;66.50;;;;;;5002571;28;20728;-60
2024/03/16 06:33:33;;;;;;;5.20;1.67;;;16.10;66.60;;;;;;5007328;28;20185;-59
2024/03/16 06:35:59;;;;;;;5.03;2.20;;;16.10;66.60;;;;;;5009304;28;20978;-60
2024/03/16 06:38:24;;;;;;;6.60;2.87;;;16.10;66.60;;;;;;5005528;28;20181;-59
2024/03/16 06:40:50;;;;;;;7.03;3.50;;;16.10;66.60;;;;;;5006907;28;20241;-60
2024/03/16 06:43:16;;;;;;;10.57;4.30;;;16.10;66.60;;;;;;5004958;28;20231;-58
2024/03/16 06:45:42;;;;;;;6.07;3.20;;;16.10;66.50;;;;;;5005437;28;20592;-60
2024/03/16 06:48:07;;;;;;;2.80;1.90;;;16.00;65.70;;;;;;5008490;28;20221;-59
2024/03/16 06:50:35;;;;;;;5.80;1.33;;;16.00;66.10;;;;;;5005443;28;20193;-59
2024/03/16 06:53:01;;;;;;;2.30;1.60;;;16.10;66.10;;;;;;5008335;28;20587;-59
2024/03/16 06:55:26;;;;;;;4.23;1.30;;;16.10;65.80;;;;;;5004793;28;20418;-60
2024/03/16 06:57:52;;;;;;;2.20;1.07;;;16.20;65.80;;;;;;5005893;28;20220;-59
2024/03/16 07:00:17;;;;;;;1.53;0.93;;;16.10;65.70;;;;;;5003590;28;20186;-59
2024/03/16 07:02:43;;;;;;;3.77;1.50;;;16.10;66.40;;;;;;5009697;28;20214;-60
2024/03/16 07:05:09;;;;;;;2.80;1.60;;;16.10;66.80;;;;;;5005574;28;20761;-60
2024/03/16 07:07:35;;;;;;;1.90;1.30;;;16.20;66.60;;;;;;5008329;28;20206;-60
2024/03/16 07:10:01;;;;;;;1.90;0.90;;;16.20;66.30;;;;;;5003126;28;20429;-59
2024/03/16 07:12:26;;;;;;;1.10;0.87;;;16.20;66.30;;;;;;5007347;28;20657;-60
2024/03/16 07:14:52;;;;;;;2.60;0.87;;;16.30;65.90;;;;;;5008852;28;20676;-58
2024/03/16 07:17:17;;;;;;;1.53;1.00;;;16.30;65.60;;;;;;5005657;28;20244;-59
2024/03/16 07:19:43;;;;;;;1.20;0.70;;;16.30;65.50;;;;;;5005846;28;20183;-60
2024/03/16 07:22:08;;;;;;;2.53;0.90;;;16.20;65.10;;;;;;5003882;28;20220;-61
2024/03/16 07:24:34;;;;;;;1.10;1.00;;;16.10;65.10;;;;;;5005199;28;20555;-59
2024/03/16 07:27:00;;;;;;;0.77;0.77;;;15.70;66.50;;;;;;5007564;28;20224;-59
2024/03/16 07:29:25;;;;;;;1.67;0.97;;;15.80;67.30;;;;;;5003139;28;20426;-60
2024/03/16 07:31:51;;;;;;;1.20;0.80;;;15.80;67.60;;;;;;5006077;28;20201;-60
2024/03/16 07:34:17;;;;;;;2.47;0.73;;;15.90;67.30;;;;;;5005664;28;20175;-59
2024/03/16 07:36:42;;;;;;;0.73;0.70;;;15.90;67.20;;;;;;5008349;28;20269;-61
2024/03/16 07:39:08;;;;;;;1.83;1.30;;;16.10;67.20;;;;;;5003523;28;20681;-60
2024/03/16 07:41:37;;;;;;;3.63;2.73;;;16.20;66.80;;;;;;5007190;28;20644;-59
2024/03/16 07:44:02;;;;;;;4.73;2.73;;;16.30;66.90;;;;;;5002098;28;20185;-59
2024/03/16 07:46:28;;;;;;;1.17;1.00;;;16.30;66.70;;;;;;5006166;28;20982;-59
2024/03/16 07:48:56;;;;;;;6.10;1.40;;;16.20;67.20;;;;;;5007227;28;20854;-60
2024/03/16 07:51:28;;;;;;;4.80;1.53;;;16.20;67.30;;;;;;5005727;28;20194;-61
2024/03/16 07:53:58;;;;;;;1.53;0.90;;;16.30;67.20;;;;;;5006172;28;20515;-67
2024/03/16 07:56:23;;;;;;;2.00;0.90;;;16.10;67.20;;;;;;5004448;28;20552;-63
2024/03/16 07:58:49;;;;;;;1.93;0.90;;;16.00;67.60;;;;;;5004236;28;20867;-63
2024/03/16 08:01:15;;;;;;;2.53;0.90;;;16.10;68.30;;;;;;5009372;28;20837;-62
2024/03/16 08:03:42;;;;;;;2.40;1.00;;;15.90;68.80;;;;;;5005551;28;20178;-62
2024/03/16 08:06:07;;;;;;;3.10;1.00;;;15.70;68.90;;;;;;5007823;28;20416;-63
2024/03/16 08:08:33;;;;;;;1.80;0.87;;;15.70;69.80;;;;;;5001490;28;20406;-63
2024/03/16 08:10:59;;;;;;;5.33;1.07;;;15.90;69.30;;;;;;5010026;28;20257;-64
2024/03/16 08:13:25;;;;;;;1.53;1.10;;;16.00;69.00;;;;;;5008568;28;20504;-64
2024/03/16 08:15:52;;;;;;;3.97;1.30;;;16.20;69.60;;;;;;5011469;28;20677;-64
2024/03/16 08:18:17;;;;;;;3.80;1.10;;;16.20;68.80;;;;;;5004017;28;20504;-64
2024/03/16 08:20:43;;;;;;;1.83;0.90;;;16.20;68.80;;;;;;5009707;28;20512;-63
2024/03/16 08:23:08;;;;;;;5.30;1.10;;;16.30;68.80;;;;;;5012025;28;21052;-63
2024/03/16 08:25:34;;;;;;;1.17;0.93;;;16.30;68.50;;;;;;5009323;28;20178;-64
2024/03/16 08:27:59;;;;;;;1.47;1.13;;;16.30;68.90;;;;;;5009376;28;20204;-62
2024/03/16 08:30:25;;;;;;;1.30;0.80;;;16.10;69.60;;;;;;5008069;28;20209;-63
2024/03/16 08:32:52;;;;;;;2.20;1.00;;;16.10;69.30;;;;;;5007686;28;20197;-64
2024/03/16 08:35:18;;;;;;;1.57;0.90;;;16.20;69.30;;;;;;5002078;28;20197;-63
2024/03/16 08:37:43;;;;;;;2.60;1.10;;;16.20;69.10;;;;;;5007761;28;20446;-63
2024/03/16 08:40:12;;;;;;;0.70;0.70;;;16.30;69.50;;;;;;5010284;28;20444;-64
2024/03/16 08:42:41;;;;;;;2.60;1.33;;;16.30;69.40;;;;;;5005693;28;20238;-63
2024/03/16 08:45:10;;;;;;;1.33;0.80;;;16.20;69.50;;;;;;5009367;28;20425;-63
2024/03/16 08:47:36;;;;;;;4.30;1.10;;;16.00;70.50;;;;;;5008153;28;20542;-63
2024/03/16 08:50:04;;;;;;;0.90;0.90;;;15.90;70.30;;;;;;5010418;28;20433;-63
2024/03/16 08:52:30;;;;;;;1.00;0.80;;;16.00;71.20;;;;;;5006915;28;20417;-62
2024/03/16 08:54:55;;;;;;;3.10;1.23;;;15.90;71.60;;;;;;5009423;28;20933;-63
2024/03/16 08:57:25;;;;;;;4.30;1.07;;;16.00;71.90;;;;;;5004033;28;20280;-64
2024/03/16 08:59:53;;;;;;;1.23;0.80;;;15.90;71.30;;;;;;5007853;28;20182;-63
2024/03/16 09:02:24;;;;;;;1.53;1.03;;;15.90;71.60;;;;;;5005766;28;20464;-63
2024/03/16 09:04:55;;;;;;;4.10;1.40;;;16.10;71.20;;;;;;5006514;28;20429;-64
2024/03/16 09:07:21;;;;;;;2.20;1.13;;;15.90;71.20;;;;;;5005002;28;20453;-62
2024/03/16 09:09:47;;;;;;;3.60;0.93;;;15.80;71.70;;;;;;5004617;28;20523;-61
2024/03/16 09:12:13;;;;;;;1.27;0.90;;;15.80;70.90;;;;;;5008593;28;20244;-61
2024/03/16 09:14:39;;;;;;;1.03;0.80;;;15.60;72.40;;;;;;5009746;28;20197;-61
2024/03/16 09:17:05;;;;;;;4.40;0.90;;;15.70;71.90;;;;;;5007177;28;20436;-64
2024/03/16 09:19:32;;;;;;;3.50;3.20;;;15.80;71.40;;;;;;5007681;28;20190;-61
2024/03/16 09:21:58;;;;;;;1.00;0.93;;;15.90;71.10;;;;;;5003727;28;20879;-64
2024/03/16 09:24:23;;;;;;;1.10;0.80;;;16.10;70.60;;;;;;5008014;28;20516;-63
2024/03/16 09:26:52;;;;;;;2.13;1.27;;;16.00;69.60;;;;;;5008192;28;20605;-63
2024/03/16 09:29:17;;;;;;;3.17;0.90;;;16.20;69.90;;;;;;5005782;28;20182;-65
2024/03/16 09:31:43;;;;;;;1.10;1.10;;;16.30;70.40;;;;;;5006892;28;20513;-63
2024/03/16 09:34:10;;;;;;;1.30;1.07;;;16.40;69.10;;;;;;5007486;28;20217;-63
2024/03/16 09:36:37;;;;;;;0.83;0.83;;;16.50;68.00;;;;;;5010090;28;20217;-63
2024/03/16 09:39:08;;;;;;;0.83;0.73;;;16.40;67.90;;;;;;5005203;28;20441;-60
2024/03/16 09:41:35;;;;;;;3.17;1.20;;;16.30;67.00;;;;;;5009432;28;20473;-65
2024/03/16 09:44:01;;;;;;;2.00;1.00;;;16.30;66.60;;;;;;5003409;28;20430;-63
2024/03/16 09:46:31;;;;;;;1.10;0.80;;;16.30;66.40;;;;;;5007756;28;20449;-64
2024/03/16 09:48:57;;;;;;;5.43;0.83;;;16.20;66.00;;;;;;5006833;28;20177;-63
2024/03/16 09:51:22;;;;;;;2.83;0.90;;;16.30;66.30;;;;;;5006976;28;20429;-63
2024/03/16 09:53:49;;;;;;;1.40;0.80;;;16.40;66.00;;;;;;5006678;28;20942;-64
2024/03/16 09:56:16;;;;;;;1.90;1.13;;;16.70;65.20;;;;;;5005501;28;20221;-64
2024/03/16 09:58:42;;;;;;;0.77;0.70;;;16.40;63.20;;;;;;5004778;28;20429;-61
2024/03/16 10:01:08;;;;;;;1.47;0.70;;;16.20;64.00;;;;;;5009816;28;20428;-63
2024/03/16 10:03:35;;;;;;;1.33;0.70;;;16.30;64.30;;;;;;5005873;28;20262;-66
2024/03/16 10:06:04;;;;;;;0.90;0.80;;;16.30;63.30;;;;;;5008697;28;20413;-69
2024/03/16 10:08:33;;;;;;;0.77;0.77;;;16.30;63.40;;;;;;5003405;28;20844;-65
2024/03/16 10:11:14;;;;;;;0.70;0.60;;;16.40;63.40;;;;;;5005003;28;20443;-62
2024/03/16 10:13:54;;;;;;;2.30;1.00;;;16.20;63.20;;;;;;5009158;28;20445;-61
2024/03/16 10:16:22;;;;;;;0.80;0.80;;;16.40;63.70;;;;;;5002505;28;20444;-62
2024/03/16 10:18:52;;;;;;;1.87;0.83;;;16.40;63.50;;;;;;5006394;28;20428;-62
2024/03/16 10:21:18;;;;;;;1.00;0.70;;;16.40;62.70;;;;;;5001201;28;20433;-62
2024/03/16 10:23:47;;;;;;;0.70;0.70;;;16.60;63.30;;;;;;5007881;28;20421;-63
2024/03/16 10:26:15;;;;;;;0.80;0.70;;;16.70;62.90;;;;;;5004539;28;20296;-64
2024/03/16 10:28:42;;;;;;;1.63;0.70;;;16.30;62.30;;;;;;5007708;28;20441;-63
2024/03/16 10:31:09;;;;;;;3.03;1.00;;;16.10;63.10;;;;;;5002856;28;20456;-61
2024/03/16 10:33:36;;;;;;;0.60;0.60;;;16.00;62.70;;;;;;5006659;28;20425;-63
2024/03/16 10:36:02;;;;;;;1.73;0.80;;;16.20;63.40;;;;;;5008873;28;20424;-58
2024/03/16 10:38:29;;;;;;;1.27;0.90;;;16.20;63.30;;;;;;5006164;28;20488;-61
2024/03/16 10:40:59;;;;;;;3.83;0.70;;;16.10;62.70;;;;;;5006827;28;20424;-63
2024/03/16 10:43:30;;;;;;;1.20;0.60;;;16.20;62.80;;;;;;5004747;28;21064;-62
2024/03/16 10:45:57;;;;;;;1.03;0.70;;;16.30;62.70;;;;;;5004669;28;20424;-62
2024/03/16 10:48:23;;;;;;;0.90;0.60;;;16.30;62.30;;;;;;5008260;28;20495;-62
2024/03/16 10:50:51;;;;;;;0.93;0.50;;;16.40;63.30;;;;;;5005184;28;20470;-63
2024/03/16 10:53:17;;;;;;;1.00;0.60;;;16.30;63.00;;;;;;5007913;28;20901;-61
2024/03/16 10:55:46;;;;;;;1.03;0.53;;;16.50;63.40;;;;;;5003320;28;20422;-62
2024/03/16 10:58:20;;;;;;;0.83;0.60;;;16.30;61.10;;;;;;5005483;28;20510;-61
2024/03/16 11:00:47;;;;;;;1.50;0.80;;;16.00;62.00;;;;;;5007126;28;20520;-62
2024/03/16 11:03:27;;;;;;;0.70;0.60;;;16.20;62.20;;;;;;5006963;28;20652;-62
2024/03/16 11:06:06;;;;;;;0.63;0.63;;;16.10;61.70;;;;;;5007401;28;20796;-61
2024/03/16 11:08:36;;;;;;;1.03;0.70;;;16.20;62.40;;;;;;5002765;28;20430;-61
2024/03/16 11:11:03;;;;;;;1.03;0.60;;;16.20;62.40;;;;;;5004818;28;20421;-60
2024/03/16 11:13:28;;;;;;;1.53;1.00;;;16.40;62.40;;;;;;5006401;28;20512;-61
2024/03/16 11:15:57;;;;;;;0.80;0.70;;;16.20;61.20;;;;;;5008843;28;20507;-58
2024/03/16 11:18:23;;;;;;;1.20;0.70;;;16.30;62.20;;;;;;5003644;28;20228;-61
2024/03/16 11:20:54;;;;;;;0.80;0.80;;;16.30;62.80;;;;;;5007619;28;20451;-63
2024/03/16 11:23:28;;;;;;;1.43;0.60;;;16.50;62.40;;;;;;5003733;28;20481;-63
2024/03/16 11:25:57;;;;;;;1.47;0.60;;;16.70;61.00;;;;;;5004133;28;20867;-61
2024/03/16 11:28:23;;;;;;;0.50;0.50;;;16.50;61.00;;;;;;5006209;28;20435;-61
2024/03/16 11:30:53;;;;;;;0.87;0.57;;;16.60;61.50;;;;;;5002103;28;20428;-61
2024/03/16 11:33:24;;;;;;;2.70;0.63;;;16.70;60.90;;;;;;5000752;28;20425;-59
2024/03/16 11:35:50;;;;;;;3.07;0.63;;;16.70;59.60;;;;;;5007795;28;20424;-60
2024/03/16 11:38:16;;;;;;;1.07;0.83;;;17.00;60.90;;;;;;5004019;28;21047;-63
2024/03/16 11:40:44;;;;;;;2.83;0.60;;;17.30;60.70;;;;;;5004865;28;20183;-57
2024/03/16 11:43:13;;;;;;;0.60;0.60;;;17.40;60.80;;;;;;5003530;28;20473;-62
2024/03/16 11:45:40;;;;;;;1.33;0.60;;;17.70;60.10;;;;;;5006324;28;20508;-61
2024/03/16 11:48:10;;;;;;;0.70;0.63;;;18.00;58.30;;;;;;5016099;28;21203;-62
2024/03/16 11:50:39;;;;;;;0.70;0.70;;;17.90;57.70;;;;;;5007294;28;20437;-63
2024/03/16 11:53:06;;;;;;;1.00;0.70;;;18.10;57.80;;;;;;5010521;28;20837;-62
2024/03/16 11:55:35;;;;;;;1.43;0.90;;;17.90;56.80;;;;;;5010534;28;20487;-62
2024/03/16 11:58:03;;;;;;;0.97;0.70;;;17.60;56.90;;;;;;5009037;28;20440;-61
2024/03/16 12:00:29;;;;;;;1.80;0.70;;;17.60;57.80;;;;;;5007745;28;20433;-61
2024/03/16 12:03:00;;;;;;;0.50;0.50;;;17.60;58.00;;;;;;5010442;28;20481;-62
2024/03/16 12:05:27;;;;;;;2.57;0.70;;;17.70;57.00;;;;;;5010365;28;20413;-64
2024/03/16 12:07:54;;;;;;;0.80;0.70;;;17.70;56.70;;;;;;5008517;28;20443;-67
2024/03/16 12:10:22;;;;;;;0.80;0.60;;;17.90;57.40;;;;;;5011539;28;20413;-62
2024/03/16 12:12:50;;;;;;;0.60;0.50;;;17.80;56.30;;;;;;5007792;28;20432;-66
2024/03/16 12:15:17;;;;;;;0.70;0.70;;;17.80;56.50;;;;;;5010367;28;20471;-61
2024/03/16 12:17:44;;;;;;;0.97;0.80;;;17.50;57.20;;;;;;5005215;28;20456;-62
2024/03/16 12:20:11;;;;;;;1.93;0.80;;;17.90;57.10;;;;;;5007437;28;20871;-61
2024/03/16 12:22:50;;;;;;;2.30;0.70;;;18.20;56.90;;;;;;5011303;28;20472;-62
2024/03/16 12:25:17;;;;;;;0.60;0.57;;;18.10;56.20;;;;;;5008411;28;20421;-62
2024/03/16 12:27:49;;;;;;;1.20;0.70;;;18.20;57.10;;;;;;5008495;28;20529;-62
2024/03/16 12:30:15;;;;;;;0.70;0.50;;;18.20;56.80;;;;;;5007227;28;20516;-60
2024/03/16 12:32:44;;;;;;;0.60;0.60;;;18.00;56.50;;;;;;5007158;28;20516;-63
2024/03/16 12:35:09;;;;;;;0.70;0.60;;;17.70;55.70;;;;;;5011147;28;20193;-60
2024/03/16 12:37:39;;;;;;;2.00;0.80;;;17.70;56.40;;;;;;5006980;28;20520;-63
2024/03/16 12:40:06;;;;;;;0.80;0.70;;;17.70;56.40;;;;;;5010000;28;20612;-60
2024/03/16 12:42:32;;;;;;;0.67;0.60;;;17.40;56.30;;;;;;5005856;28;20466;-61
2024/03/16 12:45:02;;;;;;;0.50;0.50;;;17.30;57.10;;;;;;5001222;28;20424;-63